CheckWX is a tool to help pilots better visualize weather data.  It is not intended as a substitute for an official pre-flight weather briefing.

09:20:31 UTC

OICS METAR
Sanandaj Airport
Iran
Current

21 mins ago

OICS 240900Z 18014KT 9000 SCT045 SCT100 BKN200 15/01 Q1018 A3008
Observed
Feb-24 @ 09:00 UTC
Wind
  • 180° at 14 KTS
Visibility
9,000 meters
Flight Rules
VFR
Cloud Levels
  • Scattered at 4,500' AGL
  • Scattered at 10,000' AGL
  • Broken at 20,000' AGL
Temperature
15°C / 59°F
Dewpoint
C / 34°F
Humidity
39%
Altimeter
30.06" Hg
Pressure
1017.92 hPa
Previous

1 hour ago

OICS 240800Z 18012KT 9000 SCT045 SCT100 BKN200 14/M00 Q1019 A3010
Observed
Feb-24 @ 08:00 UTC
Wind
  • 180° at 12 KTS
Visibility
9,000 meters
Flight Rules
VFR
Cloud Levels
  • Scattered at 4,500' AGL
  • Scattered at 10,000' AGL
  • Broken at 20,000' AGL
Temperature
14°C / 57°F
Dewpoint
C / 32°F
Humidity
39%
Altimeter
30.09" Hg
Pressure
1018.92 hPa
Previous

2 hours ago

OICS 240700Z 36006KT 9000 SCT045 SCT090 BKN200 10/01 Q1020 A3012
Observed
Feb-24 @ 07:00 UTC
Wind
  • 360° at 6 KTS
Visibility
9,000 meters
Flight Rules
VFR
Cloud Levels
  • Scattered at 4,500' AGL
  • Scattered at 9,000' AGL
  • Broken at 20,000' AGL
Temperature
10°C / 50°F
Dewpoint
C / 34°F
Humidity
54%
Altimeter
30.12" Hg
Pressure
1019.92 hPa